createdAt,value
2023-01-13T00:02:14.486Z,0.40
2023-01-13T00:07:16.082Z,0.13
2023-01-13T00:12:17.654Z,0.13
2023-01-13T00:17:19.253Z,0.30
2023-01-13T00:22:20.842Z,0.30
2023-01-13T00:27:24.931Z,0.10
2023-01-13T00:32:26.813Z,0.20
2023-01-13T00:37:28.584Z,0.40
2023-01-13T00:42:48.385Z,0.20
2023-01-13T00:47:49.982Z,0.32
2023-01-13T00:52:51.593Z,0.20
2023-01-13T00:57:53.176Z,0.30
2023-01-13T01:02:54.795Z,0.25
2023-01-13T01:07:56.372Z,0.30
2023-01-13T01:12:57.964Z,0.30
2023-01-13T01:17:59.574Z,0.30
2023-01-13T01:23:01.186Z,0.20
2023-01-13T01:28:02.777Z,0.43
2023-01-13T01:33:05.300Z,0.30
2023-01-13T01:38:06.946Z,0.25
2023-01-13T01:43:34.681Z,0.20
2023-01-13T01:48:39.276Z,0.38
2023-01-13T01:53:41.805Z,0.20
2023-01-13T01:58:49.853Z,0.30
2023-01-13T02:03:59.669Z,0.52
2023-01-13T02:09:01.393Z,0.43
2023-01-13T02:14:02.992Z,0.20
2023-01-13T02:19:38.886Z,0.20
2023-01-13T02:24:59.262Z,0.30
2023-01-13T02:30:41.839Z,0.25
2023-01-13T02:35:51.809Z,0.28
2023-01-13T02:41:20.246Z,0.25
2023-01-13T02:46:28.774Z,0.30
2023-01-13T02:51:31.195Z,0.22
2023-01-13T02:56:37.412Z,0.20
2023-01-13T03:01:39.476Z,0.20
2023-01-13T03:07:00.699Z,0.20
2023-01-13T03:12:08.238Z,0.20
2023-01-13T03:17:42.398Z,0.20
2023-01-13T03:23:15.357Z,0.10
2023-01-13T03:28:25.597Z,0.10
2023-01-13T03:33:50.445Z,0.22
2023-01-13T03:38:54.647Z,0.10
2023-01-13T03:44:21.447Z,0.10
2023-01-13T03:49:27.280Z,0.30
2023-01-13T03:54:30.852Z,0.32
2023-01-13T03:59:36.384Z,0.30
2023-01-13T04:04:45.159Z,0.30
2023-01-13T04:09:51.714Z,0.35
2023-01-13T04:14:54.230Z,0.20
2023-01-13T04:19:55.817Z,0.22
2023-01-13T04:24:57.427Z,0.30
2023-01-13T04:29:59.071Z,0.10
2023-01-13T04:35:01.022Z,0.13
2023-01-13T04:40:02.679Z,0.20
2023-01-13T04:45:04.702Z,0.20
2023-01-13T04:50:06.593Z,0.30
2023-01-13T04:55:09.012Z,0.45
2023-01-13T05:00:12.940Z,0.20
2023-01-13T05:05:14.542Z,0.40
2023-01-13T05:10:16.538Z,0.30
2023-01-13T05:15:36.851Z,0.10
2023-01-13T05:20:38.551Z,0.43
2023-01-13T05:25:44.120Z,0.30
2023-01-13T05:30:49.838Z,0.20
2023-01-13T05:35:51.734Z,0.20
2023-01-13T05:41:12.112Z,0.20
2023-01-13T05:46:14.841Z,0.30
2023-01-13T05:51:16.580Z,0.20
2023-01-13T05:56:18.259Z,0.13
2023-01-13T06:01:20.000Z,0.35
2023-01-13T06:06:21.824Z,0.10
2023-01-13T06:11:23.457Z,0.35
2023-01-13T06:16:25.193Z,0.15
2023-01-13T06:21:26.817Z,0.30
2023-01-13T06:26:30.698Z,0.20
2023-01-13T06:31:36.565Z,0.10
2023-01-13T06:36:40.909Z,0.15
2023-01-13T06:42:01.072Z,0.20
2023-01-13T06:47:02.738Z,0.20
2023-01-13T06:52:05.218Z,0.20
2023-01-13T06:57:06.815Z,0.20
2023-01-13T07:02:08.585Z,0.20
2023-01-13T07:07:10.261Z,0.50
2023-01-13T07:12:12.271Z,0.20
2023-01-13T07:17:13.925Z,0.20
2023-01-13T07:22:15.550Z,0.50
2023-01-13T07:27:17.196Z,0.30
2023-01-13T07:32:19.167Z,0.20
2023-01-13T07:37:20.775Z,0.43
2023-01-13T07:42:40.793Z,0.30
2023-01-13T07:47:42.589Z,0.30
2023-01-13T07:52:44.230Z,0.30
2023-01-13T07:57:45.942Z,0.20
2023-01-13T08:02:47.629Z,0.13
2023-01-13T08:07:49.280Z,0.20
2023-01-13T08:13:09.251Z,0.32
2023-01-13T08:18:11.452Z,0.93
2023-01-13T08:23:13.159Z,0.50
2023-01-13T08:28:15.916Z,0.40
2023-01-13T08:33:17.674Z,0.30
2023-01-13T08:38:20.095Z,0.30
2023-01-13T08:43:21.813Z,0.40
2023-01-13T08:48:23.419Z,0.52
2023-01-13T08:53:25.016Z,0.20
2023-01-13T08:58:26.852Z,0.25
2023-01-13T09:03:28.517Z,0.20
2023-01-13T09:08:30.119Z,0.22
2023-01-13T09:13:31.821Z,0.30
2023-01-13T09:18:33.463Z,0.30
2023-01-13T09:23:35.116Z,0.20
2023-01-13T09:28:36.753Z,0.82
2023-01-13T09:33:57.147Z,0.32
2023-01-13T09:38:59.205Z,0.30
2023-01-13T09:44:01.874Z,0.25
2023-01-13T09:49:04.412Z,0.10
2023-01-13T09:54:16.524Z,0.30
2023-01-13T09:59:18.313Z,0.20
2023-01-13T10:04:20.129Z,0.57
2023-01-13T10:09:49.918Z,0.38
2023-01-13T10:14:55.833Z,0.75
2023-01-13T10:20:41.049Z,0.20
2023-01-13T10:25:58.093Z,0.30
2023-01-13T10:30:59.937Z,0.20
2023-01-13T10:36:15.276Z,0.20
2023-01-13T10:41:20.118Z,0.40
2023-01-13T10:46:21.810Z,0.38
2023-01-13T10:51:38.798Z,0.60
2023-01-13T10:56:42.365Z,0.32
2023-01-13T11:01:54.736Z,0.30
2023-01-13T11:06:56.983Z,0.20
2023-01-13T11:11:59.520Z,0.43
2023-01-13T11:17:24.897Z,0.20
2023-01-13T11:22:34.291Z,0.45
2023-01-13T11:27:41.751Z,0.20
2023-01-13T11:33:12.333Z,0.55
2023-01-13T11:38:52.338Z,0.32
2023-01-13T11:44:05.142Z,0.43
2023-01-13T11:49:07.017Z,0.30
2023-01-13T11:54:24.355Z,0.30
2023-01-13T11:59:38.101Z,0.40
2023-01-13T12:04:57.819Z,0.40
2023-01-13T12:10:13.204Z,0.68
2023-01-13T12:15:21.493Z,0.20
2023-01-13T12:20:38.196Z,0.20
2023-01-13T12:25:45.751Z,0.35
2023-01-13T12:30:54.551Z,0.30
2023-01-13T12:36:05.122Z,0.22
2023-01-13T12:41:10.386Z,0.80
2023-01-13T12:46:24.561Z,0.60
2023-01-13T12:51:34.216Z,0.70
2023-01-13T12:56:42.040Z,0.32
2023-01-13T13:01:45.310Z,0.55
2023-01-13T13:07:07.204Z,0.25
2023-01-13T13:12:59.918Z,0.50
2023-01-13T13:18:16.758Z,0.30
2023-01-13T13:23:33.470Z,0.40
2023-01-13T13:28:38.471Z,0.22
2023-01-13T13:33:52.885Z,0.35
2023-01-13T13:39:22.439Z,0.40
2023-01-13T13:44:49.655Z,0.20
2023-01-13T13:49:54.368Z,0.40
2023-01-13T13:54:59.695Z,0.35
2023-01-13T14:00:01.809Z,0.30
2023-01-13T14:05:18.152Z,0.32
2023-01-13T14:10:25.058Z,0.20
2023-01-13T14:15:35.132Z,0.30
2023-01-13T14:20:37.067Z,0.40
2023-01-13T14:25:47.390Z,0.20
2023-01-13T14:30:50.760Z,0.47
2023-01-13T14:36:04.717Z,0.35
2023-01-13T14:41:20.873Z,0.30
2023-01-13T14:46:25.143Z,0.20
2023-01-13T14:51:28.452Z,0.35
2023-01-13T14:56:53.831Z,0.17
2023-01-13T15:01:55.792Z,0.43
2023-01-13T15:06:58.135Z,0.52
2023-01-13T15:11:59.964Z,0.30
2023-01-13T15:17:01.612Z,0.30
2023-01-13T15:22:03.365Z,0.35
2023-01-13T15:27:18.905Z,0.28
2023-01-13T15:32:21.696Z,0.22
2023-01-13T15:37:25.545Z,0.52
2023-01-13T15:42:45.831Z,0.40
2023-01-13T15:47:48.286Z,0.43
2023-01-13T15:52:49.935Z,0.73
2023-01-13T15:57:51.618Z,0.75
2023-01-13T16:02:53.356Z,1.05
2023-01-13T16:07:55.034Z,1.42
2023-01-13T16:12:56.716Z,1.10
2023-01-13T16:18:01.015Z,1.15
2023-01-13T16:23:02.674Z,1.63
2023-01-13T16:28:04.322Z,1.77
2023-01-13T16:33:05.991Z,4.25
2023-01-13T16:38:14.044Z,4.28
2023-01-13T16:43:15.724Z,1.77
2023-01-13T16:48:20.106Z,1.10
2023-01-13T16:53:21.757Z,0.73
2023-01-13T16:58:23.429Z,1.25
2023-01-13T17:03:25.094Z,1.13
2023-01-13T17:08:26.903Z,0.63
2023-01-13T17:13:28.499Z,0.85
2023-01-13T17:18:30.215Z,0.80
2023-01-13T17:23:33.398Z,0.85
2023-01-13T17:28:35.094Z,0.52
2023-01-13T17:33:37.218Z,0.45
2023-01-13T17:38:38.835Z,0.65
2023-01-13T17:43:40.453Z,1.13
2023-01-13T17:48:42.043Z,0.98
2023-01-13T17:53:44.218Z,1.02
2023-01-13T17:58:46.772Z,1.15
2023-01-13T18:03:48.895Z,0.85
2023-01-13T18:08:50.875Z,0.88
2023-01-13T18:13:57.305Z,0.88
2023-01-13T18:19:19.845Z,0.80
2023-01-13T18:24:40.165Z,0.80
2023-01-13T18:29:41.785Z,0.73
2023-01-13T18:34:43.633Z,0.68
2023-01-13T18:39:45.311Z,0.95
2023-01-13T18:44:46.938Z,0.88
2023-01-13T18:49:48.915Z,0.77
2023-01-13T18:54:50.648Z,0.82
2023-01-13T18:59:52.524Z,0.32
2023-01-13T19:04:54.449Z,1.13
2023-01-13T19:09:56.180Z,0.50
2023-01-13T19:14:58.472Z,0.50
2023-01-13T19:20:00.117Z,1.10
2023-01-13T19:25:03.158Z,0.40
2023-01-13T19:30:06.014Z,0.52
2023-01-13T19:35:08.693Z,0.70
2023-01-13T19:40:10.920Z,0.95
2023-01-13T19:45:30.557Z,0.45
2023-01-13T19:50:36.278Z,0.80
2023-01-13T19:55:37.931Z,0.47
2023-01-13T20:00:46.996Z,0.50
2023-01-13T20:05:48.641Z,0.50
2023-01-13T20:10:50.271Z,0.50
2023-01-13T20:15:52.035Z,0.88
2023-01-13T20:20:53.774Z,0.45
2023-01-13T20:25:55.607Z,0.43
2023-01-13T20:30:57.216Z,0.40
2023-01-13T20:35:59.238Z,0.60
2023-01-13T20:41:21.849Z,0.55
2023-01-13T20:46:24.549Z,0.45
2023-01-13T20:51:26.253Z,1.23
2023-01-13T20:56:27.948Z,0.40
2023-01-13T21:01:30.198Z,0.93
2023-01-13T21:06:32.981Z,0.40
2023-01-13T21:11:53.777Z,0.63
2023-01-13T21:16:55.373Z,0.65
2023-01-13T21:21:57.309Z,0.50
2023-01-13T21:26:59.146Z,1.05
2023-01-13T21:32:00.852Z,0.60
2023-01-13T21:37:02.482Z,0.52
2023-01-13T21:42:23.057Z,0.35
2023-01-13T21:47:43.302Z,0.70
2023-01-13T21:52:45.750Z,0.65
2023-01-13T21:57:48.081Z,0.57
2023-01-13T22:02:50.445Z,0.57
2023-01-13T22:07:52.437Z,0.70
2023-01-13T22:12:55.655Z,0.70
2023-01-13T22:17:57.364Z,0.70
2023-01-13T22:22:59.337Z,0.60
2023-01-13T22:28:05.969Z,0.65
2023-01-13T22:38:12.118Z,1.10
2023-01-13T22:43:14.229Z,0.90
2023-01-13T22:48:15.989Z,0.90
2023-01-13T22:53:18.083Z,0.52
2023-01-13T22:58:19.705Z,0.77
2023-01-13T23:03:22.129Z,0.43
2023-01-13T23:08:23.883Z,0.60
2023-01-13T23:13:25.508Z,0.55
2023-01-13T23:18:27.170Z,0.45
2023-01-13T23:23:28.792Z,0.75
2023-01-13T23:28:30.561Z,0.50
2023-01-13T23:33:32.334Z,0.73
2023-01-13T23:38:34.025Z,0.45
2023-01-13T23:43:35.910Z,0.70
2023-01-13T23:48:37.744Z,1.02
2023-01-13T23:53:44.925Z,0.80
2023-01-13T23:58:47.076Z,1.00
